Time;durP1;ratioP1;P1;durP2;ratioP2;P2;SDS_P1;SDS_P2;PMS_P1;PMS_P2;Temp;Humidity;BMP_temperature;BMP_pressure;BME280_temperature;BME280_humidity;BME280_pressure;Samples;Min_cycle;Max_cycle;Signal;HPM_P1;HPM_P2
2023/07/12 00:01:13;;;;;;;7.18;3.13;;;;;;;;;;5109948;27;20039;-65
2023/07/12 00:03:39;;;;;;;7.15;3.28;;;;;;;;;;5109990;28;20032;-64
2023/07/12 00:06:11;;;;;;;6.47;3.45;;;;;;;;;;5110622;28;20043;-64
2023/07/12 00:08:40;;;;;;;5.03;2.92;;;;;;;;;;5110856;28;20044;-65
2023/07/12 00:11:09;;;;;;;8.98;2.75;;;;;;;;;;5110215;27;20474;-64
2023/07/12 00:13:36;;;;;;;4.45;2.50;;;;;;;;;;5111695;28;20048;-65
2023/07/12 00:16:02;;;;;;;5.60;3.22;;;;;;;;;;5112932;27;20058;-64
2023/07/12 00:18:28;;;;;;;3.72;2.30;;;;;;;;;;5111629;28;20039;-64
2023/07/12 00:20:54;;;;;;;5.93;2.58;;;;;;;;;;5108714;28;20475;-65
2023/07/12 00:23:20;;;;;;;4.78;2.58;;;;;;;;;;5110677;27;20039;-64
2023/07/12 00:25:48;;;;;;;8.73;3.10;;;;;;;;;;5106890;28;20093;-65
2023/07/12 00:28:17;;;;;;;7.40;2.58;;;;;;;;;;5107833;28;20510;-65
2023/07/12 00:30:43;;;;;;;5.55;3.17;;;;;;;;;;5102220;28;20070;-65
2023/07/12 00:33:09;;;;;;;6.78;3.10;;;;;;;;;;5122855;27;20059;-64
2023/07/12 00:35:36;;;;;;;5.72;2.55;;;;;;;;;;5110648;28;20089;-65
2023/07/12 00:38:03;;;;;;;7.03;2.63;;;;;;;;;;5109512;27;20040;-65
2023/07/12 00:40:44;;;;;;;7.95;2.20;;;;;;;;;;5100076;28;20579;-64
2023/07/12 00:43:31;;;;;;;7.35;2.45;;;;;;;;;;5110463;28;20039;-65
2023/07/12 00:45:58;;;;;;;6.97;2.60;;;;;;;;;;5092364;28;20043;-65
2023/07/12 00:48:25;;;;;;;13.55;2.75;;;;;;;;;;5108120;27;20412;-64
2023/07/12 00:50:51;;;;;;;5.88;2.45;;;;;;;;;;5110956;27;20039;-65
2023/07/12 00:53:19;;;;;;;9.73;3.03;;;;;;;;;;5091671;28;20039;-65
2023/07/12 00:56:02;;;;;;;6.32;2.35;;;;;;;;;;5110121;28;20100;-65
2023/07/12 00:58:33;;;;;;;9.45;2.85;;;;;;;;;;5112223;28;20434;-65
2023/07/12 01:01:00;;;;;;;6.35;2.30;;;;;;;;;;5110248;27;20061;-64
2023/07/12 01:03:29;;;;;;;6.70;2.58;;;;;;;;;;5112054;28;20044;-64
2023/07/12 01:05:55;;;;;;;7.03;2.78;;;;;;;;;;5112656;27;20104;-65
2023/07/12 01:08:22;;;;;;;6.90;3.17;;;;;;;;;;5106213;28;20390;-65
2023/07/12 01:10:48;;;;;;;8.48;2.78;;;;;;;;;;5109367;28;20118;-64
2023/07/12 01:13:14;;;;;;;8.32;3.10;;;;;;;;;;5109045;27;20039;-64
2023/07/12 01:15:41;;;;;;;8.38;3.25;;;;;;;;;;5110420;27;20388;-65
2023/07/12 01:18:07;;;;;;;7.05;2.40;;;;;;;;;;5112080;28;20430;-65
2023/07/12 01:20:38;;;;;;;9.85;2.42;;;;;;;;;;5105365;27;20421;-64
2023/07/12 01:23:05;;;;;;;8.10;3.17;;;;;;;;;;5111290;28;20104;-65
2023/07/12 01:25:37;;;;;;;7.35;2.50;;;;;;;;;;5108452;28;20513;-65
2023/07/12 01:28:03;;;;;;;8.77;2.92;;;;;;;;;;5109130;28;20054;-65
2023/07/12 01:30:30;;;;;;;8.10;2.92;;;;;;;;;;5102711;27;20048;-65
2023/07/12 01:32:56;;;;;;;12.63;3.78;;;;;;;;;;5110921;27;20114;-64
2023/07/12 01:35:22;;;;;;;10.13;2.78;;;;;;;;;;5110616;27;20086;-64
2023/07/12 01:37:49;;;;;;;10.75;3.10;;;;;;;;;;5109880;28;21491;-64
2023/07/12 01:40:15;;;;;;;12.05;3.97;;;;;;;;;;5112194;28;20491;-64
2023/07/12 01:42:41;;;;;;;9.32;3.03;;;;;;;;;;5109902;28;20147;-65
2023/07/12 01:45:08;;;;;;;11.55;3.33;;;;;;;;;;5109504;28;20048;-65
2023/07/12 01:47:34;;;;;;;10.90;3.17;;;;;;;;;;5101035;28;20059;-64
2023/07/12 01:50:00;;;;;;;10.57;3.45;;;;;;;;;;5110426;28;20047;-65
2023/07/12 01:52:26;;;;;;;9.65;3.20;;;;;;;;;;5109178;28;20051;-65
2023/07/12 01:54:53;;;;;;;18.60;3.50;;;;;;;;;;5108407;28;20031;-65
2023/07/12 01:57:19;;;;;;;16.55;2.70;;;;;;;;;;5107571;27;20523;-64
2023/07/12 01:59:46;;;;;;;11.57;3.65;;;;;;;;;;5103768;27;20074;-64
2023/07/12 02:02:12;;;;;;;12.55;3.47;;;;;;;;;;5107210;28;20063;-64
2023/07/12 02:04:38;;;;;;;9.25;3.08;;;;;;;;;;5107650;28;20092;-65
2023/07/12 02:07:05;;;;;;;11.60;3.65;;;;;;;;;;5108727;28;20043;-64
2023/07/12 02:09:40;;;;;;;13.20;3.50;;;;;;;;;;5109423;28;20142;-64
2023/07/12 02:12:06;;;;;;;11.55;3.63;;;;;;;;;;5106413;28;20040;-64
2023/07/12 02:14:32;;;;;;;10.13;4.30;;;;;;;;;;5108245;28;20039;-65
2023/07/12 02:16:58;;;;;;;12.52;3.67;;;;;;;;;;5109336;28;20056;-64
2023/07/12 02:19:25;;;;;;;10.35;3.30;;;;;;;;;;5110415;28;20411;-64
2023/07/12 02:21:51;;;;;;;14.82;3.30;;;;;;;;;;5109010;28;20088;-64
2023/07/12 02:24:17;;;;;;;13.30;4.05;;;;;;;;;;5097108;28;20509;-64
2023/07/12 02:26:43;;;;;;;16.17;4.50;;;;;;;;;;5096063;28;20044;-64
2023/07/12 02:29:09;;;;;;;14.95;4.57;;;;;;;;;;5108986;28;20068;-64
2023/07/12 02:31:36;;;;;;;17.02;5.00;;;;;;;;;;5090850;28;20044;-64
2023/07/12 02:34:02;;;;;;;11.90;3.97;;;;;;;;;;5105860;28;20126;-65
2023/07/12 02:36:28;;;;;;;16.63;4.43;;;;;;;;;;5110910;28;20061;-64
2023/07/12 02:38:55;;;;;;;19.08;4.25;;;;;;;;;;5099189;28;20047;-64
2023/07/12 02:41:21;;;;;;;16.33;4.05;;;;;;;;;;5103139;28;20126;-64
2023/07/12 02:43:48;;;;;;;13.30;4.80;;;;;;;;;;5109527;28;20044;-64
2023/07/12 02:46:14;;;;;;;14.52;4.13;;;;;;;;;;5110274;28;20043;-64
2023/07/12 02:48:40;;;;;;;17.08;5.20;;;;;;;;;;5106907;28;20047;-65
2023/07/12 02:51:07;;;;;;;13.43;3.97;;;;;;;;;;5108045;28;20508;-64
2023/07/12 02:53:33;;;;;;;18.75;4.20;;;;;;;;;;5106421;28;20040;-64
2023/07/12 02:56:00;;;;;;;14.70;3.55;;;;;;;;;;5108858;27;20398;-64
2023/07/12 02:58:26;;;;;;;15.60;3.78;;;;;;;;;;5112826;27;20047;-64
2023/07/12 03:00:56;;;;;;;17.27;4.28;;;;;;;;;;5111473;27;20049;-64
2023/07/12 03:03:23;;;;;;;19.95;3.80;;;;;;;;;;5113921;28;20122;-64
2023/07/12 03:05:49;;;;;;;18.75;4.55;;;;;;;;;;5105223;27;20066;-64
2023/07/12 03:08:15;;;;;;;16.00;3.85;;;;;;;;;;5109280;28;20035;-64
2023/07/12 03:10:41;;;;;;;12.52;3.72;;;;;;;;;;5111700;28;20058;-64
2023/07/12 03:13:09;;;;;;;17.13;4.72;;;;;;;;;;5112543;28;20035;-64
2023/07/12 03:15:38;;;;;;;14.20;3.80;;;;;;;;;;5111963;27;20451;-65
2023/07/12 03:18:05;;;;;;;16.58;3.38;;;;;;;;;;5108157;27;20095;-65
2023/07/12 03:20:33;;;;;;;15.75;4.03;;;;;;;;;;5107511;28;20643;-65
2023/07/12 03:22:59;;;;;;;14.98;3.47;;;;;;;;;;5111498;27;20031;-64
2023/07/12 03:25:25;;;;;;;17.80;5.30;;;;;;;;;;5110558;28;20052;-64
2023/07/12 03:27:51;;;;;;;17.80;5.00;;;;;;;;;;5109207;28;20051;-64
2023/07/12 03:30:17;;;;;;;17.00;4.47;;;;;;;;;;5113830;28;20039;-64
2023/07/12 03:32:44;;;;;;;17.15;4.55;;;;;;;;;;5109383;28;20055;-64
2023/07/12 03:35:10;;;;;;;14.27;4.47;;;;;;;;;;5112792;28;20036;-64
2023/07/12 03:37:36;;;;;;;16.65;4.70;;;;;;;;;;5111326;28;20070;-64
2023/07/12 03:40:03;;;;;;;18.05;4.88;;;;;;;;;;5112688;27;20165;-64
2023/07/12 03:42:29;;;;;;;18.48;5.15;;;;;;;;;;5112315;28;20458;-64
2023/07/12 03:44:55;;;;;;;20.88;4.93;;;;;;;;;;5110413;28;20058;-64
2023/07/12 03:47:22;;;;;;;16.13;4.85;;;;;;;;;;5112219;28;20506;-65
2023/07/12 03:49:48;;;;;;;16.00;5.45;;;;;;;;;;5104109;27;20055;-64
2023/07/12 03:52:14;;;;;;;22.10;5.45;;;;;;;;;;5111506;27;20052;-65
2023/07/12 03:54:41;;;;;;;18.48;4.75;;;;;;;;;;5113262;28;20148;-65
2023/07/12 03:57:07;;;;;;;17.58;4.60;;;;;;;;;;5105725;27;20488;-65
2023/07/12 03:59:34;;;;;;;15.70;4.70;;;;;;;;;;5078476;28;20426;-64
2023/07/12 04:02:00;;;;;;;17.13;4.32;;;;;;;;;;5109422;28;20462;-64
2023/07/12 04:04:27;;;;;;;21.75;5.70;;;;;;;;;;5111772;28;20099;-65
2023/07/12 04:06:53;;;;;;;20.55;5.05;;;;;;;;;;5111523;28;20055;-64
2023/07/12 04:09:19;;;;;;;14.15;4.22;;;;;;;;;;5099271;28;20058;-65
2023/07/12 04:11:45;;;;;;;17.90;5.18;;;;;;;;;;5111691;28;20340;-64
2023/07/12 04:14:11;;;;;;;20.30;4.53;;;;;;;;;;5110111;27;20044;-65
2023/07/12 04:16:37;;;;;;;14.80;3.67;;;;;;;;;;5108869;27;20051;-66
2023/07/12 04:19:04;;;;;;;24.88;5.25;;;;;;;;;;5106598;27;20092;-66
2023/07/12 04:21:30;;;;;;;24.92;5.88;;;;;;;;;;5105279;28;20036;-66
2023/07/12 04:23:56;;;;;;;24.35;5.30;;;;;;;;;;5109039;28;20471;-67
2023/07/12 04:26:22;;;;;;;20.95;4.45;;;;;;;;;;5113289;28;20099;-64
2023/07/12 04:28:51;;;;;;;14.50;4.72;;;;;;;;;;5114093;28;20058;-79
2023/07/12 04:31:18;;;;;;;19.88;5.80;;;;;;;;;;5112751;28;20075;-64
2023/07/12 04:33:46;;;;;;;22.90;5.18;;;;;;;;;;5113272;27;20066;-64
2023/07/12 04:36:12;;;;;;;19.77;6.38;;;;;;;;;;5113407;27;20042;-64
2023/07/12 04:38:39;;;;;;;21.17;5.13;;;;;;;;;;5109329;28;20484;-65
2023/07/12 04:41:05;;;;;;;26.40;5.78;;;;;;;;;;5111689;27;20108;-68
2023/07/12 04:43:31;;;;;;;21.65;5.68;;;;;;;;;;5112120;28;20048;-68
2023/07/12 04:45:58;;;;;;;24.83;5.35;;;;;;;;;;5109375;27;20051;-68
2023/07/12 04:48:24;;;;;;;24.30;5.90;;;;;;;;;;5111868;28;20051;-67
2023/07/12 04:50:52;;;;;;;25.25;7.00;;;;;;;;;;5113459;27;20375;-67
2023/07/12 04:53:18;;;;;;;19.00;4.90;;;;;;;;;;5112680;28;20136;-67
2023/07/12 04:55:44;;;;;;;19.70;6.10;;;;;;;;;;5113552;28;20058;-67
2023/07/12 04:58:11;;;;;;;23.50;6.03;;;;;;;;;;5113453;28;20043;-67
2023/07/12 05:00:37;;;;;;;21.10;5.50;;;;;;;;;;5110888;27;20119;-67
2023/07/12 05:03:03;;;;;;;20.05;5.47;;;;;;;;;;5099239;28;20122;-67
2023/07/12 05:05:30;;;;;;;24.25;5.40;;;;;;;;;;5111230;28;20487;-67
2023/07/12 05:07:56;;;;;;;23.90;5.75;;;;;;;;;;5111677;28;20054;-67
2023/07/12 05:10:22;;;;;;;21.45;4.82;;;;;;;;;;5111232;28;20040;-67
2023/07/12 05:12:49;;;;;;;25.52;5.28;;;;;;;;;;5112060;28;20136;-67
2023/07/12 05:15:16;;;;;;;23.50;5.50;;;;;;;;;;5112779;28;20394;-67
2023/07/12 05:17:42;;;;;;;26.00;5.47;;;;;;;;;;5095731;28;20097;-67
2023/07/12 05:20:11;;;;;;;16.30;4.93;;;;;;;;;;5110834;27;20039;-67
2023/07/12 05:22:37;;;;;;;22.60;4.90;;;;;;;;;;5111421;28;20118;-67
2023/07/12 05:25:03;;;;;;;23.30;4.82;;;;;;;;;;5112189;28;20032;-67
2023/07/12 05:27:29;;;;;;;21.33;5.47;;;;;;;;;;5109948;28;20046;-67
2023/07/12 05:29:56;;;;;;;20.83;5.53;;;;;;;;;;5110365;27;20043;-67
2023/07/12 05:32:22;;;;;;;20.73;4.95;;;;;;;;;;5112239;28;20059;-67
2023/07/12 05:34:48;;;;;;;22.15;5.47;;;;;;;;;;5111888;28;20524;-67
2023/07/12 05:37:16;;;;;;;24.40;5.60;;;;;;;;;;5110925;28;20120;-67
2023/07/12 05:39:42;;;;;;;19.52;5.68;;;;;;;;;;5112812;28;20051;-66
2023/07/12 05:42:09;;;;;;;22.15;5.20;;;;;;;;;;5110890;28;20046;-67
2023/07/12 05:44:35;;;;;;;20.13;5.03;;;;;;;;;;5112874;28;20123;-67
2023/07/12 05:47:01;;;;;;;19.23;4.57;;;;;;;;;;5111070;28;20039;-67
2023/07/12 05:49:27;;;;;;;22.33;5.22;;;;;;;;;;5095982;28;20055;-67
2023/07/12 05:51:55;;;;;;;21.20;4.97;;;;;;;;;;5107180;28;20569;-67
2023/07/12 05:54:21;;;;;;;14.05;4.20;;;;;;;;;;5110290;28;20138;-67
2023/07/12 05:56:47;;;;;;;17.83;3.85;;;;;;;;;;5111785;28;20104;-67
2023/07/12 05:59:14;;;;;;;17.50;4.35;;;;;;;;;;5110735;28;20043;-67
2023/07/12 06:01:40;;;;;;;19.23;4.32;;;;;;;;;;5110929;28;20432;-67
2023/07/12 06:04:08;;;;;;;22.02;4.40;;;;;;;;;;5111630;28;20040;-68
2023/07/12 06:06:34;;;;;;;29.30;5.90;;;;;;;;;;5111188;28;20090;-68
2023/07/12 06:09:00;;;;;;;18.30;4.32;;;;;;;;;;5092535;28;20085;-67
2023/07/12 06:11:27;;;;;;;18.10;4.07;;;;;;;;;;5112539;28;20035;-67
2023/07/12 06:13:53;;;;;;;26.00;4.97;;;;;;;;;;5110867;28;20115;-67
2023/07/12 06:16:20;;;;;;;20.13;5.82;;;;;;;;;;5110339;28;20051;-67
2023/07/12 06:18:46;;;;;;;35.78;6.25;;;;;;;;;;5112255;28;20035;-67
2023/07/12 06:21:12;;;;;;;23.88;5.70;;;;;;;;;;5111863;28;20043;-70
2023/07/12 06:23:38;;;;;;;38.50;6.63;;;;;;;;;;5111165;28;20036;-66
2023/07/12 06:26:05;;;;;;;23.85;6.22;;;;;;;;;;5112152;28;20134;-65
2023/07/12 06:28:32;;;;;;;21.63;4.90;;;;;;;;;;5108846;28;20079;-66
2023/07/12 06:30:58;;;;;;;18.60;5.35;;;;;;;;;;5109886;27;20046;-67
2023/07/12 06:33:24;;;;;;;23.10;5.18;;;;;;;;;;5094199;28;20409;-74
2023/07/12 06:35:50;;;;;;;21.88;5.65;;;;;;;;;;5116215;27;20040;-66
2023/07/12 06:38:17;;;;;;;22.20;5.85;;;;;;;;;;5113885;28;20487;-66
2023/07/12 06:40:45;;;;;;;29.05;6.82;;;;;;;;;;5115785;28;20058;-66
2023/07/12 06:43:12;;;;;;;21.70;6.05;;;;;;;;;;5097909;28;20081;-66
2023/07/12 06:45:38;;;;;;;30.85;7.25;;;;;;;;;;5114130;28;20087;-67
2023/07/12 06:48:04;;;;;;;23.63;6.05;;;;;;;;;;5114283;28;20050;-67
2023/07/12 06:50:30;;;;;;;32.92;7.22;;;;;;;;;;5114980;28;20118;-66
2023/07/12 06:52:57;;;;;;;27.52;7.82;;;;;;;;;;5113515;28;20567;-66
2023/07/12 06:55:23;;;;;;;33.65;9.20;;;;;;;;;;5114343;28;20040;-66
2023/07/12 06:57:49;;;;;;;28.70;7.72;;;;;;;;;;5111983;27;20117;-66
2023/07/12 07:00:15;;;;;;;28.00;6.50;;;;;;;;;;5115170;28;20486;-66
2023/07/12 07:02:42;;;;;;;24.92;7.80;;;;;;;;;;5115491;27;20080;-66
2023/07/12 07:05:08;;;;;;;26.40;6.97;;;;;;;;;;5115840;28;20040;-66
2023/07/12 07:07:34;;;;;;;32.40;7.53;;;;;;;;;;5114902;28;20047;-66
2023/07/12 07:10:00;;;;;;;23.88;6.93;;;;;;;;;;5114446;28;20106;-66
2023/07/12 07:12:26;;;;;;;8.50;2.38;;;;;;;;;;5114468;28;20100;-66
2023/07/12 07:14:53;;;;;;;10.35;3.03;;;;;;;;;;5115286;28;20498;-66
2023/07/12 07:17:19;;;;;;;11.15;3.15;;;;;;;;;;5113475;28;20544;-64
2023/07/12 07:19:45;;;;;;;7.95;2.97;;;;;;;;;;5111296;28;20043;-65
2023/07/12 07:22:11;;;;;;;9.40;2.55;;;;;;;;;;5074043;28;20059;-67
2023/07/12 07:24:38;;;;;;;9.07;2.20;;;;;;;;;;5106905;28;20047;-70
2023/07/12 07:27:04;;;;;;;9.57;3.08;;;;;;;;;;5105489;28;20036;-67
2023/07/12 07:29:31;;;;;;;9.32;2.92;;;;;;;;;;5108255;28;20353;-67
2023/07/12 07:31:57;;;;;;;10.50;2.70;;;;;;;;;;5105511;27;20139;-68
2023/07/12 07:34:23;;;;;;;10.00;2.92;;;;;;;;;;5110046;28;20064;-66
2023/07/12 07:36:50;;;;;;;14.93;3.47;;;;;;;;;;5108523;28;20071;-65
2023/07/12 07:39:16;;;;;;;12.52;3.53;;;;;;;;;;5109220;28;20040;-66
2023/07/12 07:41:43;;;;;;;14.45;4.18;;;;;;;;;;5092491;28;20048;-66
2023/07/12 07:44:09;;;;;;;15.32;4.65;;;;;;;;;;5111247;28;20047;-66
2023/07/12 07:46:35;;;;;;;15.35;3.70;;;;;;;;;;5110563;27;20051;-66
2023/07/12 07:49:02;;;;;;;15.32;3.80;;;;;;;;;;5112492;28;20119;-66
2023/07/12 07:51:28;;;;;;;16.20;4.00;;;;;;;;;;5114631;28;20047;-66
2023/07/12 07:53:54;;;;;;;13.55;3.45;;;;;;;;;;5113494;27;20158;-66
2023/07/12 07:56:20;;;;;;;10.32;2.97;;;;;;;;;;5113753;28;20176;-66
2023/07/12 07:58:46;;;;;;;10.82;3.00;;;;;;;;;;5113807;27;20084;-66
2023/07/12 08:01:13;;;;;;;14.52;3.30;;;;;;;;;;5113436;27;20036;-66
2023/07/12 08:03:42;;;;;;;16.83;3.80;;;;;;;;;;5095463;27;20070;-66
2023/07/12 08:06:08;;;;;;;11.18;3.78;;;;;;;;;;5110287;27;20079;-66
2023/07/12 08:08:34;;;;;;;11.15;3.10;;;;;;;;;;5107894;28;20051;-67
2023/07/12 08:11:04;;;;;;;11.10;2.50;;;;;;;;;;5109828;27;20620;-67
2023/07/12 08:13:30;;;;;;;8.55;2.15;;;;;;;;;;5108951;28;20123;-66
2023/07/12 08:15:57;;;;;;;13.30;2.95;;;;;;;;;;5106982;28;20051;-67
2023/07/12 08:18:23;;;;;;;9.77;2.72;;;;;;;;;;5111270;28;20066;-65
2023/07/12 08:20:52;;;;;;;12.02;2.92;;;;;;;;;;5109425;28;20114;-67
2023/07/12 08:23:18;;;;;;;10.15;2.53;;;;;;;;;;5105066;28;20825;-66
2023/07/12 08:25:45;;;;;;;13.95;3.58;;;;;;;;;;5107622;28;20150;-66
2023/07/12 08:28:11;;;;;;;8.40;2.35;;;;;;;;;;5110883;28;20068;-66
2023/07/12 08:30:37;;;;;;;9.02;2.60;;;;;;;;;;5112819;28;20130;-66
2023/07/12 08:33:03;;;;;;;16.35;3.15;;;;;;;;;;5108759;27;20059;-66
2023/07/12 08:35:29;;;;;;;14.23;3.15;;;;;;;;;;5110694;28;20394;-65
2023/07/12 08:37:57;;;;;;;10.35;3.20;;;;;;;;;;5112828;28;20048;-65
2023/07/12 08:40:24;;;;;;;10.85;2.60;;;;;;;;;;5112467;28;20134;-65
2023/07/12 08:42:50;;;;;;;15.27;3.22;;;;;;;;;;5113694;27;20035;-65
2023/07/12 08:45:20;;;;;;;10.15;3.13;;;;;;;;;;5111503;28;20050;-65
2023/07/12 08:47:48;;;;;;;11.82;3.00;;;;;;;;;;5109382;28;20035;-66
2023/07/12 08:50:15;;;;;;;8.38;2.63;;;;;;;;;;5113503;28;20138;-65
2023/07/12 08:52:44;;;;;;;8.02;2.55;;;;;;;;;;5111449;27;20044;-64
2023/07/12 08:55:18;;;;;;;5.90;2.30;;;;;;;;;;5112812;27;20487;-64
2023/07/12 08:57:45;;;;;;;14.85;3.25;;;;;;;;;;5111649;28;20067;-65
2023/07/12 09:00:20;;;;;;;8.13;2.63;;;;;;;;;;5112791;28;20055;-65
2023/07/12 09:02:46;;;;;;;11.65;2.80;;;;;;;;;;5111072;27;20080;-66
2023/07/12 09:05:16;;;;;;;10.75;3.03;;;;;;;;;;5111785;27;20039;-66
2023/07/12 09:07:55;;;;;;;7.80;2.15;;;;;;;;;;5113225;28;20048;-66
2023/07/12 09:10:39;;;;;;;6.28;1.67;;;;;;;;;;5113461;28;20554;-66
2023/07/12 09:13:06;;;;;;;7.35;2.35;;;;;;;;;;5112557;28;20128;-66
2023/07/12 09:15:34;;;;;;;8.45;2.45;;;;;;;;;;5111418;27;20455;-67
2023/07/12 09:18:01;;;;;;;5.88;2.10;;;;;;;;;;5107031;28;20040;-66
2023/07/12 09:20:29;;;;;;;7.80;2.38;;;;;;;;;;5107620;27;20415;-66
2023/07/12 09:22:56;;;;;;;9.02;2.72;;;;;;;;;;5106261;28;20052;-66
2023/07/12 09:25:24;;;;;;;4.90;2.08;;;;;;;;;;5108929;28;20048;-66
2023/07/12 09:27:50;;;;;;;7.95;2.70;;;;;;;;;;5107368;28;20111;-66
2023/07/12 09:30:24;;;;;;;7.30;2.15;;;;;;;;;;5109616;28;20048;-66
2023/07/12 09:32:50;;;;;;;8.73;2.60;;;;;;;;;;5110505;27;20063;-66
2023/07/12 09:35:30;;;;;;;6.30;2.40;;;;;;;;;;5108578;27;20059;-66
2023/07/12 09:37:57;;;;;;;6.43;2.50;;;;;;;;;;5111606;28;20448;-66
2023/07/12 09:40:24;;;;;;;5.00;1.83;;;;;;;;;;5112371;27;20055;-66
2023/07/12 09:42:56;;;;;;;9.13;2.33;;;;;;;;;;5120452;27;20124;-66
2023/07/12 09:45:22;;;;;;;5.93;1.95;;;;;;;;;;5115050;27;20051;-67
2023/07/12 09:48:11;;;;;;;6.35;1.52;;;;;;;;;;5112404;27;20035;-67
2023/07/12 09:50:40;;;;;;;7.40;1.85;;;;;;;;;;5111043;28;20475;-67
2023/07/12 09:53:11;;;;;;;4.18;1.90;;;;;;;;;;5112319;27;20059;-67
2023/07/12 09:56:03;;;;;;;6.13;1.60;;;;;;;;;;5111718;28;20264;-67
2023/07/12 09:58:38;;;;;;;7.53;2.15;;;;;;;;;;5107682;28;20052;-67
2023/07/12 10:01:11;;;;;;;5.75;1.83;;;;;;;;;;5111812;28;20065;-68
2023/07/12 10:03:39;;;;;;;6.75;2.08;;;;;;;;;;5142122;27;20047;-67
2023/07/12 10:06:15;;;;;;;5.55;1.80;;;;;;;;;;5110161;27;20031;-67
2023/07/12 10:08:45;;;;;;;10.23;2.20;;;;;;;;;;5100563;28;20056;-67
2023/07/12 10:11:16;;;;;;;8.18;2.15;;;;;;;;;;5108003;28;20329;-67
2023/07/12 10:13:47;;;;;;;6.43;1.63;;;;;;;;;;5110402;28;20047;-67
2023/07/12 10:16:24;;;;;;;7.18;1.60;;;;;;;;;;5110833;28;20043;-67
2023/07/12 10:18:50;;;;;;;5.55;1.75;;;;;;;;;;5111722;28;20043;-67
2023/07/12 10:21:21;;;;;;;8.77;2.17;;;;;;;;;;5110175;27;20108;-67
2023/07/12 10:23:53;;;;;;;6.05;1.98;;;;;;;;;;5114517;28;20127;-67
2023/07/12 10:26:19;;;;;;;3.90;1.00;;;;;;;;;;5110516;28;20097;-67
2023/07/12 10:28:48;;;;;;;3.95;1.10;;;;;;;;;;5110992;28;20387;-67
2023/07/12 10:31:35;;;;;;;5.82;1.10;;;;;;;;;;5110123;28;20375;-66
2023/07/12 10:34:20;;;;;;;7.18;1.30;;;;;;;;;;5094689;28;20058;-68
2023/07/12 10:36:48;;;;;;;4.50;1.10;;;;;;;;;;5144237;27;20043;-67
2023/07/12 10:39:14;;;;;;;6.43;1.10;;;;;;;;;;5110571;28;20051;-67
2023/07/12 10:41:46;;;;;;;6.22;1.20;;;;;;;;;;5112036;28;20085;-67
2023/07/12 10:44:20;;;;;;;6.25;1.63;;;;;;;;;;5110446;28;20063;-67
2023/07/12 10:46:50;;;;;;;5.80;1.60;;;;;;;;;;5110187;28;20047;-67
2023/07/12 10:49:18;;;;;;;6.50;1.40;;;;;;;;;;5110470;28;20043;-67
2023/07/12 10:51:46;;;;;;;6.15;1.15;;;;;;;;;;5110114;28;20059;-67
2023/07/12 10:54:30;;;;;;;5.93;1.10;;;;;;;;;;5110138;28;20047;-67
2023/07/12 10:57:04;;;;;;;5.38;1.13;;;;;;;;;;5112009;28;20054;-67
2023/07/12 10:59:30;;;;;;;4.60;1.30;;;;;;;;;;5111129;28;20047;-67
2023/07/12 11:02:05;;;;;;;6.15;1.33;;;;;;;;;;5110105;28;20040;-67
2023/07/12 11:04:32;;;;;;;6.20;1.42;;;;;;;;;;5109761;28;20335;-67
2023/07/12 11:06:58;;;;;;;6.82;1.40;;;;;;;;;;5110980;28;20040;-67
2023/07/12 11:09:25;;;;;;;7.57;1.60;;;;;;;;;;5109768;28;20139;-67
2023/07/12 11:11:58;;;;;;;8.73;1.70;;;;;;;;;;5092456;28;20048;-67
2023/07/12 11:14:26;;;;;;;5.18;1.23;;;;;;;;;;5105303;28;20485;-67
2023/07/12 11:17:04;;;;;;;5.07;1.20;;;;;;;;;;5112293;27;20067;-67
2023/07/12 11:19:35;;;;;;;5.65;1.00;;;;;;;;;;5108237;28;20548;-66
2023/07/12 11:22:19;;;;;;;5.85;1.42;;;;;;;;;;5109656;27;20040;-67
2023/07/12 11:24:46;;;;;;;8.35;1.15;;;;;;;;;;5112714;28;20156;-66
2023/07/12 11:27:32;;;;;;;6.25;1.40;;;;;;;;;;5113348;27;20390;-66
2023/07/12 11:30:08;;;;;;;4.40;0.90;;;;;;;;;;5107545;28;20051;-66
2023/07/12 11:32:38;;;;;;;4.47;1.10;;;;;;;;;;5111919;28;20119;-74
2023/07/12 11:35:10;;;;;;;6.60;0.95;;;;;;;;;;5114764;27;20044;-67
2023/07/12 11:37:47;;;;;;;7.50;1.42;;;;;;;;;;5114618;27;20495;-67
2023/07/12 11:40:22;;;;;;;4.05;1.15;;;;;;;;;;5113910;28;20139;-67
2023/07/12 11:42:49;;;;;;;5.07;1.15;;;;;;;;;;5114457;27;20079;-67
2023/07/12 11:45:17;;;;;;;10.75;2.20;;;;;;;;;;5112882;27;20451;-67
2023/07/12 11:47:46;;;;;;;6.85;1.00;;;;;;;;;;5112733;27;20050;-67
2023/07/12 11:50:20;;;;;;;5.88;1.27;;;;;;;;;;5112982;27;20052;-67
2023/07/12 11:52:47;;;;;;;3.33;0.90;;;;;;;;;;5114592;28;20082;-67
2023/07/12 11:55:15;;;;;;;7.05;1.40;;;;;;;;;;5113063;27;20455;-67
2023/07/12 11:57:41;;;;;;;3.47;1.00;;;;;;;;;;5114086;27;20043;-67
2023/07/12 12:00:15;;;;;;;4.57;1.60;;;;;;;;;;5120607;27;20391;-67
2023/07/12 12:02:41;;;;;;;4.07;0.85;;;;;;;;;;5106358;27;20062;-66
2023/07/12 12:05:20;;;;;;;6.35;1.15;;;;;;;;;;5113074;27;20035;-66
2023/07/12 12:07:47;;;;;;;2.63;0.63;;;;;;;;;;5111942;27;20055;-66
2023/07/12 12:10:26;;;;;;;3.97;0.82;;;;;;;;;;5118260;27;20042;-66
2023/07/12 12:12:53;;;;;;;3.65;0.73;;;;;;;;;;5113373;28;20055;-67
2023/07/12 12:15:21;;;;;;;3.25;0.82;;;;;;;;;;5112462;28;20051;-67
2023/07/12 12:17:47;;;;;;;5.57;0.90;;;;;;;;;;5112632;28;20096;-67
2023/07/12 12:20:13;;;;;;;4.63;0.80;;;;;;;;;;5113521;28;20047;-67
2023/07/12 12:22:41;;;;;;;2.85;0.80;;;;;;;;;;5112892;27;20055;-71
2023/07/12 12:25:16;;;;;;;2.08;0.50;;;;;;;;;;5114188;28;20099;-71
2023/07/12 12:27:43;;;;;;;5.40;0.68;;;;;;;;;;5112629;28;20046;-67
2023/07/12 12:30:16;;;;;;;8.07;1.13;;;;;;;;;;5111279;27;20155;-71
2023/07/12 12:32:43;;;;;;;4.10;0.90;;;;;;;;;;5103381;27;20039;-67
2023/07/12 12:35:17;;;;;;;3.88;0.82;;;;;;;;;;5108127;27;20040;-67
2023/07/12 12:37:53;;;;;;;2.72;0.88;;;;;;;;;;5108871;27;20059;-67
2023/07/12 12:40:20;;;;;;;6.20;0.88;;;;;;;;;;5109767;28;20458;-67
2023/07/12 12:42:58;;;;;;;4.15;1.00;;;;;;;;;;5109565;28;20054;-66
2023/07/12 12:45:27;;;;;;;5.57;1.08;;;;;;;;;;5109328;27;20123;-66
2023/07/12 12:47:53;;;;;;;4.70;1.23;;;;;;;;;;5109635;27;20055;-66
2023/07/12 12:50:20;;;;;;;4.80;1.42;;;;;;;;;;5109060;28;20074;-68
2023/07/12 12:52:46;;;;;;;6.25;1.23;;;;;;;;;;5107009;27;20050;-66
2023/07/12 12:55:13;;;;;;;3.80;0.98;;;;;;;;;;5109336;27;20380;-67
2023/07/12 12:57:39;;;;;;;3.25;0.93;;;;;;;;;;5109041;28;20036;-66
2023/07/12 13:00:18;;;;;;;6.78;1.38;;;;;;;;;;5107999;27;20506;-66
2023/07/12 13:02:45;;;;;;;4.22;1.40;;;;;;;;;;5109153;28;20088;-66
2023/07/12 13:05:11;;;;;;;3.10;0.70;;;;;;;;;;5109269;27;20052;-66
2023/07/12 13:07:39;;;;;;;3.88;0.95;;;;;;;;;;5108674;28;20051;-66
2023/07/12 13:10:07;;;;;;;3.03;0.93;;;;;;;;;;5108122;28;20458;-66
2023/07/12 13:12:35;;;;;;;2.92;0.77;;;;;;;;;;5107852;28;20051;-66
2023/07/12 13:15:02;;;;;;;5.25;1.00;;;;;;;;;;5109964;28;20069;-66
2023/07/12 13:17:30;;;;;;;6.22;1.00;;;;;;;;;;5109114;28;20051;-66
2023/07/12 13:19:56;;;;;;;4.57;1.13;;;;;;;;;;5089246;28;20143;-66
2023/07/12 13:22:24;;;;;;;5.03;1.10;;;;;;;;;;5107884;28;20112;-67
2023/07/12 13:24:53;;;;;;;4.38;1.23;;;;;;;;;;5106506;27;20156;-66
2023/07/12 13:27:26;;;;;;;2.20;0.85;;;;;;;;;;5106856;27;20381;-66
2023/07/12 13:29:53;;;;;;;2.17;0.70;;;;;;;;;;5105023;28;20100;-67
2023/07/12 13:32:20;;;;;;;3.05;0.80;;;;;;;;;;5108980;27;20125;-66
2023/07/12 13:34:46;;;;;;;3.10;0.82;;;;;;;;;;5107574;27;20105;-67
2023/07/12 13:37:18;;;;;;;5.28;1.10;;;;;;;;;;5102721;28;20067;-66
2023/07/12 13:39:45;;;;;;;4.55;1.20;;;;;;;;;;5110671;28;20051;-67
2023/07/12 13:42:11;;;;;;;4.22;0.85;;;;;;;;;;5110327;28;20092;-66
2023/07/12 13:44:38;;;;;;;2.75;0.80;;;;;;;;;;5098207;28;20047;-66
2023/07/12 13:47:17;;;;;;;3.97;0.80;;;;;;;;;;5111135;27;20053;-67
2023/07/12 13:49:44;;;;;;;4.90;0.90;;;;;;;;;;5112593;28;20478;-67
2023/07/12 13:52:15;;;;;;;3.75;1.00;;;;;;;;;;5089790;28;20531;-66
2023/07/12 13:54:43;;;;;;;2.05;0.70;;;;;;;;;;5103316;27;20394;-67
2023/07/12 13:57:16;;;;;;;3.20;0.80;;;;;;;;;;5103175;28;20047;-67
2023/07/12 13:59:44;;;;;;;3.53;0.88;;;;;;;;;;5110586;27;20607;-67
2023/07/12 14:02:18;;;;;;;6.00;1.23;;;;;;;;;;5107318;28;20086;-67
2023/07/12 14:04:45;;;;;;;2.42;0.60;;;;;;;;;;5108684;28;20058;-67
2023/07/12 14:07:12;;;;;;;2.45;0.80;;;;;;;;;;5107200;28;20130;-67
2023/07/12 14:09:38;;;;;;;2.72;0.82;;;;;;;;;;5107773;28;20104;-67
2023/07/12 14:12:06;;;;;;;4.28;0.80;;;;;;;;;;5108790;28;20478;-66
2023/07/12 14:14:33;;;;;;;3.10;1.02;;;;;;;;;;5103286;28;20047;-67
2023/07/12 14:16:59;;;;;;;4.03;1.10;;;;;;;;;;5108984;28;20130;-67
2023/07/12 14:19:25;;;;;;;5.43;1.10;;;;;;;;;;5104871;28;20049;-67
2023/07/12 14:21:51;;;;;;;5.70;1.10;;;;;;;;;;5101919;28;20035;-67
2023/07/12 14:24:18;;;;;;;4.22;1.00;;;;;;;;;;5107149;28;20055;-67
2023/07/12 14:26:44;;;;;;;3.25;0.98;;;;;;;;;;5110988;28;20134;-67
2023/07/12 14:29:10;;;;;;;2.53;0.90;;;;;;;;;;5109026;28;20078;-67
2023/07/12 14:31:37;;;;;;;3.30;0.98;;;;;;;;;;5111607;28;20433;-67
2023/07/12 14:34:04;;;;;;;4.15;1.13;;;;;;;;;;5112209;28;20044;-67
2023/07/12 14:36:30;;;;;;;4.93;1.20;;;;;;;;;;5110980;28;20044;-67
2023/07/12 14:38:56;;;;;;;7.40;1.45;;;;;;;;;;5113791;27;20039;-67
2023/07/12 14:41:24;;;;;;;6.20;1.10;;;;;;;;;;5112026;28;20103;-67